sensor_id;sensor_type;location;lat;lon;timestamp;P1;durP1;ratioP1;P2;durP2;ratioP2
61038;SDS011;46919;45.816;3.104;2023-07-20T00:00:25;4.07;;;1.20;;
61038;SDS011;46919;45.816;3.104;2023-07-20T00:02:51;2.58;;;1.20;;
61038;SDS011;46919;45.816;3.104;2023-07-20T00:05:16;2.67;;;1.35;;
61038;SDS011;46919;45.816;3.104;2023-07-20T00:07:46;2.53;;;0.90;;
61038;SDS011;46919;45.816;3.104;2023-07-20T00:10:12;1.90;;;1.08;;
61038;SDS011;46919;45.816;3.104;2023-07-20T00:12:37;2.40;;;1.10;;
61038;SDS011;46919;45.816;3.104;2023-07-20T00:15:03;2.65;;;1.08;;
61038;SDS011;46919;45.816;3.104;2023-07-20T00:17:29;2.50;;;0.98;;
61038;SDS011;46919;45.816;3.104;2023-07-20T00:19:54;4.22;;;1.00;;
61038;SDS011;46919;45.816;3.104;2023-07-20T00:22:20;2.92;;;1.10;;
61038;SDS011;46919;45.816;3.104;2023-07-20T00:24:45;2.38;;;1.05;;
61038;SDS011;46919;45.816;3.104;2023-07-20T00:27:10;1.48;;;0.95;;
61038;SDS011;46919;45.816;3.104;2023-07-20T00:29:36;3.63;;;1.30;;
61038;SDS011;46919;45.816;3.104;2023-07-20T00:32:01;2.78;;;0.95;;
61038;SDS011;46919;45.816;3.104;2023-07-20T00:34:29;1.98;;;1.00;;
61038;SDS011;46919;45.816;3.104;2023-07-20T00:36:55;2.22;;;0.82;;
61038;SDS011;46919;45.816;3.104;2023-07-20T00:39:20;4.10;;;0.90;;
61038;SDS011;46919;45.816;3.104;2023-07-20T00:41:46;2.08;;;0.90;;
61038;SDS011;46919;45.816;3.104;2023-07-20T00:44:11;1.60;;;0.80;;
61038;SDS011;46919;45.816;3.104;2023-07-20T00:46:37;1.67;;;0.98;;
61038;SDS011;46919;45.816;3.104;2023-07-20T00:49:02;3.17;;;0.90;;
61038;SDS011;46919;45.816;3.104;2023-07-20T00:51:29;1.13;;;0.70;;
61038;SDS011;46919;45.816;3.104;2023-07-20T00:53:55;2.28;;;0.93;;
61038;SDS011;46919;45.816;3.104;2023-07-20T00:56:20;2.67;;;0.80;;
61038;SDS011;46919;45.816;3.104;2023-07-20T00:58:47;3.28;;;0.90;;
61038;SDS011;46919;45.816;3.104;2023-07-20T01:01:12;2.80;;;0.63;;
61038;SDS011;46919;45.816;3.104;2023-07-20T01:03:38;1.20;;;0.98;;
61038;SDS011;46919;45.816;3.104;2023-07-20T01:08:47;2.60;;;0.77;;
61038;SDS011;46919;45.816;3.104;2023-07-20T01:13:58;1.05;;;0.82;;
61038;SDS011;46919;45.816;3.104;2023-07-20T01:16:24;2.25;;;0.95;;
61038;SDS011;46919;45.816;3.104;2023-07-20T01:18:50;1.52;;;0.70;;
61038;SDS011;46919;45.816;3.104;2023-07-20T01:21:18;3.67;;;1.00;;
61038;SDS011;46919;45.816;3.104;2023-07-20T01:26:53;1.15;;;0.73;;
61038;SDS011;46919;45.816;3.104;2023-07-20T01:32:14;2.72;;;0.90;;
61038;SDS011;46919;45.816;3.104;2023-07-20T01:34:44;0.90;;;0.70;;
61038;SDS011;46919;45.816;3.104;2023-07-20T01:37:10;1.17;;;0.80;;
61038;SDS011;46919;45.816;3.104;2023-07-20T01:39:37;1.55;;;0.80;;
61038;SDS011;46919;45.816;3.104;2023-07-20T01:42:04;2.28;;;0.77;;
61038;SDS011;46919;45.816;3.104;2023-07-20T01:44:29;3.03;;;0.90;;
61038;SDS011;46919;45.816;3.104;2023-07-20T01:46:55;0.70;;;0.70;;
61038;SDS011;46919;45.816;3.104;2023-07-20T01:49:20;1.52;;;0.80;;
61038;SDS011;46919;45.816;3.104;2023-07-20T01:51:46;1.00;;;0.88;;
61038;SDS011;46919;45.816;3.104;2023-07-20T01:54:11;1.60;;;0.80;;
61038;SDS011;46919;45.816;3.104;2023-07-20T01:56:36;2.00;;;0.88;;
61038;SDS011;46919;45.816;3.104;2023-07-20T01:59:02;0.95;;;0.60;;
61038;SDS011;46919;45.816;3.104;2023-07-20T02:01:28;1.42;;;1.00;;
61038;SDS011;46919;45.816;3.104;2023-07-20T02:03:56;3.22;;;0.70;;
61038;SDS011;46919;45.816;3.104;2023-07-20T02:06:21;1.20;;;0.82;;
61038;SDS011;46919;45.816;3.104;2023-07-20T02:08:47;2.17;;;0.80;;
61038;SDS011;46919;45.816;3.104;2023-07-20T02:11:12;2.42;;;0.90;;
61038;SDS011;46919;45.816;3.104;2023-07-20T02:13:38;1.02;;;0.63;;
61038;SDS011;46919;45.816;3.104;2023-07-20T02:16:03;1.52;;;0.80;;
61038;SDS011;46919;45.816;3.104;2023-07-20T02:18:29;1.48;;;0.90;;
61038;SDS011;46919;45.816;3.104;2023-07-20T02:20:54;3.45;;;0.93;;
61038;SDS011;46919;45.816;3.104;2023-07-20T02:23:20;1.58;;;0.98;;
61038;SDS011;46919;45.816;3.104;2023-07-20T02:25:45;0.98;;;0.75;;
61038;SDS011;46919;45.816;3.104;2023-07-20T02:28:12;1.60;;;1.00;;
61038;SDS011;46919;45.816;3.104;2023-07-20T02:30:38;1.33;;;0.80;;
61038;SDS011;46919;45.816;3.104;2023-07-20T02:33:04;1.58;;;0.80;;
61038;SDS011;46919;45.816;3.104;2023-07-20T02:35:31;3.40;;;0.63;;
61038;SDS011;46919;45.816;3.104;2023-07-20T02:37:57;1.98;;;0.93;;
61038;SDS011;46919;45.816;3.104;2023-07-20T02:40:22;2.28;;;1.13;;
61038;SDS011;46919;45.816;3.104;2023-07-20T02:42:47;1.00;;;0.88;;
61038;SDS011;46919;45.816;3.104;2023-07-20T02:45:13;1.02;;;0.90;;
61038;SDS011;46919;45.816;3.104;2023-07-20T02:47:38;2.15;;;0.93;;
61038;SDS011;46919;45.816;3.104;2023-07-20T02:50:06;1.42;;;0.73;;
61038;SDS011;46919;45.816;3.104;2023-07-20T02:52:32;2.22;;;0.80;;
61038;SDS011;46919;45.816;3.104;2023-07-20T02:54:58;1.20;;;1.00;;
61038;SDS011;46919;45.816;3.104;2023-07-20T02:57:23;1.05;;;0.80;;
61038;SDS011;46919;45.816;3.104;2023-07-20T02:59:49;1.40;;;0.90;;
61038;SDS011;46919;45.816;3.104;2023-07-20T03:02:14;1.80;;;0.93;;
61038;SDS011;46919;45.816;3.104;2023-07-20T03:04:40;4.05;;;0.90;;
61038;SDS011;46919;45.816;3.104;2023-07-20T03:07:05;2.65;;;0.80;;
61038;SDS011;46919;45.816;3.104;2023-07-20T03:09:32;2.45;;;0.95;;
61038;SDS011;46919;45.816;3.104;2023-07-20T03:11:57;3.17;;;0.90;;
61038;SDS011;46919;45.816;3.104;2023-07-20T03:14:22;1.02;;;0.90;;
61038;SDS011;46919;45.816;3.104;2023-07-20T03:16:48;1.38;;;1.05;;
61038;SDS011;46919;45.816;3.104;2023-07-20T03:19:14;2.55;;;0.90;;
61038;SDS011;46919;45.816;3.104;2023-07-20T03:21:39;2.35;;;1.08;;
61038;SDS011;46919;45.816;3.104;2023-07-20T03:24:06;2.28;;;1.00;;
61038;SDS011;46919;45.816;3.104;2023-07-20T03:26:33;1.05;;;0.95;;
61038;SDS011;46919;45.816;3.104;2023-07-20T03:28:59;1.23;;;0.80;;
61038;SDS011;46919;45.816;3.104;2023-07-20T03:31:24;1.20;;;0.85;;
61038;SDS011;46919;45.816;3.104;2023-07-20T03:33:49;1.70;;;1.00;;
61038;SDS011;46919;45.816;3.104;2023-07-20T03:36:15;1.17;;;0.80;;
61038;SDS011;46919;45.816;3.104;2023-07-20T03:38:40;2.88;;;0.90;;
61038;SDS011;46919;45.816;3.104;2023-07-20T03:41:05;1.17;;;0.88;;
61038;SDS011;46919;45.816;3.104;2023-07-20T03:43:31;3.85;;;1.00;;
61038;SDS011;46919;45.816;3.104;2023-07-20T03:45:56;4.43;;;1.00;;
61038;SDS011;46919;45.816;3.104;2023-07-20T03:48:22;1.90;;;0.95;;
61038;SDS011;46919;45.816;3.104;2023-07-20T03:50:49;1.95;;;1.02;;
61038;SDS011;46919;45.816;3.104;2023-07-20T03:53:16;3.45;;;1.10;;
61038;SDS011;46919;45.816;3.104;2023-07-20T03:55:44;1.42;;;1.00;;
61038;SDS011;46919;45.816;3.104;2023-07-20T03:58:11;1.75;;;1.10;;
61038;SDS011;46919;45.816;3.104;2023-07-20T04:00:36;3.42;;;1.13;;
61038;SDS011;46919;45.816;3.104;2023-07-20T04:03:02;2.40;;;1.15;;
61038;SDS011;46919;45.816;3.104;2023-07-20T04:05:27;3.33;;;1.10;;
61038;SDS011;46919;45.816;3.104;2023-07-20T04:07:53;4.25;;;1.17;;
61038;SDS011;46919;45.816;3.104;2023-07-20T04:10:18;1.50;;;1.00;;
61038;SDS011;46919;45.816;3.104;2023-07-20T04:12:44;2.30;;;0.90;;
61038;SDS011;46919;45.816;3.104;2023-07-20T04:15:12;1.90;;;0.80;;
61038;SDS011;46919;45.816;3.104;2023-07-20T04:17:38;3.40;;;0.82;;
61038;SDS011;46919;45.816;3.104;2023-07-20T04:20:03;1.23;;;0.82;;
61038;SDS011;46919;45.816;3.104;2023-07-20T04:22:30;2.70;;;1.45;;
61038;SDS011;46919;45.816;3.104;2023-07-20T04:24:56;1.50;;;1.20;;
61038;SDS011;46919;45.816;3.104;2023-07-20T04:27:21;3.10;;;1.73;;
61038;SDS011;46919;45.816;3.104;2023-07-20T04:29:46;2.47;;;1.48;;
61038;SDS011;46919;45.816;3.104;2023-07-20T04:32:12;1.60;;;1.08;;
61038;SDS011;46919;45.816;3.104;2023-07-20T04:34:37;2.05;;;1.00;;
61038;SDS011;46919;45.816;3.104;2023-07-20T04:37:06;2.67;;;1.35;;
61038;SDS011;46919;45.816;3.104;2023-07-20T04:39:31;1.80;;;0.80;;
61038;SDS011;46919;45.816;3.104;2023-07-20T04:41:57;1.98;;;1.00;;
61038;SDS011;46919;45.816;3.104;2023-07-20T04:44:22;2.72;;;1.17;;
61038;SDS011;46919;45.816;3.104;2023-07-20T04:46:48;2.33;;;1.00;;
61038;SDS011;46919;45.816;3.104;2023-07-20T04:49:13;1.50;;;1.00;;
61038;SDS011;46919;45.816;3.104;2023-07-20T04:51:39;2.90;;;0.95;;
61038;SDS011;46919;45.816;3.104;2023-07-20T04:54:04;2.20;;;1.17;;
61038;SDS011;46919;45.816;3.104;2023-07-20T04:56:30;4.03;;;1.23;;
61038;SDS011;46919;45.816;3.104;2023-07-20T04:58:55;3.03;;;1.00;;
61038;SDS011;46919;45.816;3.104;2023-07-20T05:01:22;2.33;;;1.10;;
61038;SDS011;46919;45.816;3.104;2023-07-20T05:03:48;1.88;;;1.15;;
61038;SDS011;46919;45.816;3.104;2023-07-20T05:06:13;1.90;;;1.00;;
61038;SDS011;46919;45.816;3.104;2023-07-20T05:08:38;1.70;;;1.10;;
61038;SDS011;46919;45.816;3.104;2023-07-20T05:11:04;2.42;;;1.10;;
61038;SDS011;46919;45.816;3.104;2023-07-20T05:13:29;1.60;;;1.10;;
61038;SDS011;46919;45.816;3.104;2023-07-20T05:15:55;2.38;;;0.90;;
61038;SDS011;46919;45.816;3.104;2023-07-20T05:18:20;1.83;;;1.30;;
61038;SDS011;46919;45.816;3.104;2023-07-20T05:20:49;2.35;;;1.10;;
61038;SDS011;46919;45.816;3.104;2023-07-20T05:23:17;2.75;;;1.10;;
61038;SDS011;46919;45.816;3.104;2023-07-20T05:25:43;2.10;;;1.13;;
61038;SDS011;46919;45.816;3.104;2023-07-20T05:28:09;3.05;;;1.20;;
61038;SDS011;46919;45.816;3.104;2023-07-20T05:30:34;3.33;;;1.70;;
61038;SDS011;46919;45.816;3.104;2023-07-20T05:32:59;5.30;;;2.20;;
61038;SDS011;46919;45.816;3.104;2023-07-20T05:35:25;3.30;;;1.88;;
61038;SDS011;46919;45.816;3.104;2023-07-20T05:37:51;4.38;;;2.13;;
61038;SDS011;46919;45.816;3.104;2023-07-20T05:40:16;6.20;;;2.72;;
61038;SDS011;46919;45.816;3.104;2023-07-20T05:42:44;5.70;;;3.03;;
61038;SDS011;46919;45.816;3.104;2023-07-20T05:45:16;5.65;;;2.85;;
61038;SDS011;46919;45.816;3.104;2023-07-20T05:47:42;7.90;;;3.30;;
61038;SDS011;46919;45.816;3.104;2023-07-20T05:50:08;8.77;;;3.10;;
61038;SDS011;46919;45.816;3.104;2023-07-20T05:52:34;6.18;;;3.33;;
61038;SDS011;46919;45.816;3.104;2023-07-20T05:54:59;6.18;;;3.08;;
61038;SDS011;46919;45.816;3.104;2023-07-20T05:57:24;5.65;;;3.13;;
61038;SDS011;46919;45.816;3.104;2023-07-20T05:59:50;5.03;;;2.47;;
61038;SDS011;46919;45.816;3.104;2023-07-20T06:02:15;5.72;;;2.20;;
61038;SDS011;46919;45.816;3.104;2023-07-20T06:04:41;5.30;;;2.65;;
61038;SDS011;46919;45.816;3.104;2023-07-20T06:07:07;5.80;;;2.28;;
61038;SDS011;46919;45.816;3.104;2023-07-20T06:09:35;8.85;;;2.47;;
61038;SDS011;46919;45.816;3.104;2023-07-20T06:12:00;8.02;;;2.63;;
61038;SDS011;46919;45.816;3.104;2023-07-20T06:14:26;5.00;;;2.30;;
61038;SDS011;46919;45.816;3.104;2023-07-20T06:16:51;7.03;;;2.47;;
61038;SDS011;46919;45.816;3.104;2023-07-20T06:19:17;4.50;;;2.40;;
61038;SDS011;46919;45.816;3.104;2023-07-20T06:21:42;8.05;;;2.65;;
61038;SDS011;46919;45.816;3.104;2023-07-20T06:24:08;9.48;;;2.67;;
61038;SDS011;46919;45.816;3.104;2023-07-20T06:26:33;17.23;;;2.38;;
61038;SDS011;46919;45.816;3.104;2023-07-20T06:29:04;8.77;;;2.50;;
61038;SDS011;46919;45.816;3.104;2023-07-20T06:31:31;7.57;;;2.10;;
61038;SDS011;46919;45.816;3.104;2023-07-20T06:33:57;6.90;;;2.53;;
61038;SDS011;46919;45.816;3.104;2023-07-20T06:36:23;5.18;;;2.38;;
61038;SDS011;46919;45.816;3.104;2023-07-20T06:38:48;8.10;;;2.30;;
61038;SDS011;46919;45.816;3.104;2023-07-20T06:41:14;7.80;;;2.30;;
61038;SDS011;46919;45.816;3.104;2023-07-20T06:43:39;10.73;;;2.20;;
61038;SDS011;46919;45.816;3.104;2023-07-20T06:46:04;6.18;;;2.40;;
61038;SDS011;46919;45.816;3.104;2023-07-20T06:48:30;5.95;;;2.28;;
61038;SDS011;46919;45.816;3.104;2023-07-20T06:50:55;8.77;;;2.33;;
61038;SDS011;46919;45.816;3.104;2023-07-20T06:53:21;7.65;;;2.00;;
61038;SDS011;46919;45.816;3.104;2023-07-20T06:55:46;4.82;;;2.10;;
61038;SDS011;46919;45.816;3.104;2023-07-20T06:58:12;6.05;;;1.67;;
61038;SDS011;46919;45.816;3.104;2023-07-20T07:00:37;2.83;;;1.33;;
61038;SDS011;46919;45.816;3.104;2023-07-20T07:03:02;5.53;;;1.50;;
61038;SDS011;46919;45.816;3.104;2023-07-20T07:05:28;3.50;;;1.50;;
61038;SDS011;46919;45.816;3.104;2023-07-20T07:07:53;2.60;;;1.52;;
61038;SDS011;46919;45.816;3.104;2023-07-20T07:10:19;6.28;;;2.88;;
61038;SDS011;46919;45.816;3.104;2023-07-20T07:12:44;7.90;;;2.20;;
61038;SDS011;46919;45.816;3.104;2023-07-20T07:15:10;4.93;;;1.50;;
61038;SDS011;46919;45.816;3.104;2023-07-20T07:17:36;3.28;;;1.45;;
61038;SDS011;46919;45.816;3.104;2023-07-20T07:20:01;4.63;;;1.50;;
61038;SDS011;46919;45.816;3.104;2023-07-20T07:22:28;2.92;;;1.25;;
61038;SDS011;46919;45.816;3.104;2023-07-20T07:24:54;3.15;;;1.60;;
61038;SDS011;46919;45.816;3.104;2023-07-20T07:27:20;5.78;;;1.40;;
61038;SDS011;46919;45.816;3.104;2023-07-20T07:29:45;3.13;;;1.48;;
61038;SDS011;46919;45.816;3.104;2023-07-20T07:32:11;3.20;;;1.40;;
61038;SDS011;46919;45.816;3.104;2023-07-20T07:34:37;3.85;;;1.42;;
61038;SDS011;46919;45.816;3.104;2023-07-20T07:37:03;2.05;;;1.40;;
61038;SDS011;46919;45.816;3.104;2023-07-20T07:39:29;4.28;;;1.48;;
61038;SDS011;46919;45.816;3.104;2023-07-20T07:41:55;3.22;;;1.42;;
61038;SDS011;46919;45.816;3.104;2023-07-20T07:44:21;5.97;;;2.10;;
61038;SDS011;46919;45.816;3.104;2023-07-20T07:46:46;4.32;;;1.30;;
61038;SDS011;46919;45.816;3.104;2023-07-20T07:49:12;2.88;;;1.20;;
61038;SDS011;46919;45.816;3.104;2023-07-20T07:51:37;3.88;;;1.58;;
61038;SDS011;46919;45.816;3.104;2023-07-20T07:54:03;4.68;;;1.30;;
61038;SDS011;46919;45.816;3.104;2023-07-20T07:56:28;2.00;;;1.15;;
61038;SDS011;46919;45.816;3.104;2023-07-20T07:58:54;2.05;;;1.30;;
61038;SDS011;46919;45.816;3.104;2023-07-20T08:01:19;1.90;;;1.40;;
61038;SDS011;46919;45.816;3.104;2023-07-20T08:03:45;4.53;;;1.55;;
61038;SDS011;46919;45.816;3.104;2023-07-20T08:06:12;6.07;;;1.60;;
61038;SDS011;46919;45.816;3.104;2023-07-20T08:08:38;5.70;;;1.80;;
61038;SDS011;46919;45.816;3.104;2023-07-20T08:11:04;4.90;;;1.65;;
61038;SDS011;46919;45.816;3.104;2023-07-20T08:13:29;2.75;;;1.50;;
61038;SDS011;46919;45.816;3.104;2023-07-20T08:15:55;4.95;;;1.60;;
61038;SDS011;46919;45.816;3.104;2023-07-20T08:18:20;6.13;;;1.60;;
61038;SDS011;46919;45.816;3.104;2023-07-20T08:20:46;6.47;;;1.50;;
61038;SDS011;46919;45.816;3.104;2023-07-20T08:23:12;3.53;;;1.30;;
61038;SDS011;46919;45.816;3.104;2023-07-20T08:25:38;4.22;;;1.55;;
61038;SDS011;46919;45.816;3.104;2023-07-20T08:28:06;2.90;;;1.30;;
61038;SDS011;46919;45.816;3.104;2023-07-20T08:30:39;3.42;;;1.63;;
61038;SDS011;46919;45.816;3.104;2023-07-20T08:33:15;3.55;;;1.50;;
61038;SDS011;46919;45.816;3.104;2023-07-20T08:35:41;3.03;;;1.63;;
61038;SDS011;46919;45.816;3.104;2023-07-20T08:38:07;5.20;;;1.45;;
61038;SDS011;46919;45.816;3.104;2023-07-20T08:40:33;2.97;;;1.40;;
61038;SDS011;46919;45.816;3.104;2023-07-20T08:43:03;5.35;;;1.35;;
61038;SDS011;46919;45.816;3.104;2023-07-20T08:45:29;2.40;;;1.60;;
61038;SDS011;46919;45.816;3.104;2023-07-20T08:47:58;2.47;;;1.33;;
61038;SDS011;46919;45.816;3.104;2023-07-20T08:50:31;2.28;;;1.40;;
61038;SDS011;46919;45.816;3.104;2023-07-20T08:52:57;2.03;;;1.30;;
61038;SDS011;46919;45.816;3.104;2023-07-20T08:55:24;4.30;;;1.40;;
61038;SDS011;46919;45.816;3.104;2023-07-20T08:57:52;2.33;;;1.25;;
61038;SDS011;46919;45.816;3.104;2023-07-20T09:00:20;2.33;;;1.05;;
61038;SDS011;46919;45.816;3.104;2023-07-20T09:02:47;1.80;;;1.17;;
61038;SDS011;46919;45.816;3.104;2023-07-20T09:05:15;2.58;;;1.20;;
61038;SDS011;46919;45.816;3.104;2023-07-20T09:07:40;3.42;;;2.03;;
61038;SDS011;46919;45.816;3.104;2023-07-20T09:10:06;1.92;;;1.40;;
61038;SDS011;46919;45.816;3.104;2023-07-20T09:12:35;4.43;;;1.67;;
61038;SDS011;46919;45.816;3.104;2023-07-20T09:15:02;2.58;;;1.70;;
61038;SDS011;46919;45.816;3.104;2023-07-20T09:17:28;6.35;;;1.70;;
61038;SDS011;46919;45.816;3.104;2023-07-20T09:19:53;4.00;;;1.23;;
61038;SDS011;46919;45.816;3.104;2023-07-20T09:22:19;7.03;;;1.40;;
61038;SDS011;46919;45.816;3.104;2023-07-20T09:24:44;3.22;;;1.40;;
61038;SDS011;46919;45.816;3.104;2023-07-20T09:27:10;3.90;;;1.30;;
61038;SDS011;46919;45.816;3.104;2023-07-20T09:29:48;3.78;;;1.50;;
61038;SDS011;46919;45.816;3.104;2023-07-20T09:32:17;2.35;;;1.30;;
61038;SDS011;46919;45.816;3.104;2023-07-20T09:34:45;2.70;;;1.38;;
61038;SDS011;46919;45.816;3.104;2023-07-20T09:37:11;5.15;;;1.42;;
61038;SDS011;46919;45.816;3.104;2023-07-20T09:39:46;4.47;;;1.20;;
61038;SDS011;46919;45.816;3.104;2023-07-20T09:42:11;1.63;;;1.00;;
61038;SDS011;46919;45.816;3.104;2023-07-20T09:44:40;2.88;;;1.40;;
61038;SDS011;46919;45.816;3.104;2023-07-20T09:47:09;3.03;;;1.48;;
61038;SDS011;46919;45.816;3.104;2023-07-20T09:49:41;1.10;;;1.00;;
61038;SDS011;46919;45.816;3.104;2023-07-20T09:52:09;4.03;;;1.42;;
61038;SDS011;46919;45.816;3.104;2023-07-20T09:54:37;4.10;;;1.20;;
61038;SDS011;46919;45.816;3.104;2023-07-20T09:57:03;2.75;;;1.50;;
61038;SDS011;46919;45.816;3.104;2023-07-20T09:59:33;3.17;;;1.33;;
61038;SDS011;46919;45.816;3.104;2023-07-20T10:01:58;3.05;;;1.38;;
61038;SDS011;46919;45.816;3.104;2023-07-20T10:04:27;2.25;;;1.20;;
61038;SDS011;46919;45.816;3.104;2023-07-20T10:06:54;4.50;;;1.30;;
61038;SDS011;46919;45.816;3.104;2023-07-20T10:09:21;2.15;;;1.23;;
61038;SDS011;46919;45.816;3.104;2023-07-20T10:11:52;3.97;;;1.30;;
61038;SDS011;46919;45.816;3.104;2023-07-20T10:14:19;5.53;;;1.55;;
61038;SDS011;46919;45.816;3.104;2023-07-20T10:16:55;1.58;;;1.20;;
61038;SDS011;46919;45.816;3.104;2023-07-20T10:19:27;3.85;;;1.42;;
61038;SDS011;46919;45.816;3.104;2023-07-20T10:22:14;2.40;;;1.60;;
61038;SDS011;46919;45.816;3.104;2023-07-20T10:24:44;4.72;;;1.38;;
61038;SDS011;46919;45.816;3.104;2023-07-20T10:27:11;3.33;;;1.42;;
61038;SDS011;46919;45.816;3.104;2023-07-20T10:29:36;3.05;;;1.20;;
61038;SDS011;46919;45.816;3.104;2023-07-20T10:32:03;2.25;;;1.20;;
61038;SDS011;46919;45.816;3.104;2023-07-20T10:34:29;2.95;;;1.33;;
61038;SDS011;46919;45.816;3.104;2023-07-20T10:36:55;3.13;;;1.38;;
61038;SDS011;46919;45.816;3.104;2023-07-20T10:39:30;3.17;;;1.20;;
61038;SDS011;46919;45.816;3.104;2023-07-20T10:42:03;3.70;;;1.50;;
61038;SDS011;46919;45.816;3.104;2023-07-20T10:44:32;3.58;;;1.13;;
61038;SDS011;46919;45.816;3.104;2023-07-20T10:47:02;5.07;;;1.30;;
61038;SDS011;46919;45.816;3.104;2023-07-20T10:49:33;2.70;;;1.23;;
61038;SDS011;46919;45.816;3.104;2023-07-20T10:52:03;1.85;;;1.40;;
61038;SDS011;46919;45.816;3.104;2023-07-20T10:57:14;3.08;;;1.33;;
61038;SDS011;46919;45.816;3.104;2023-07-20T10:59:48;3.97;;;1.42;;
61038;SDS011;46919;45.816;3.104;2023-07-20T11:02:17;3.50;;;1.38;;
61038;SDS011;46919;45.816;3.104;2023-07-20T11:04:45;3.28;;;1.52;;
61038;SDS011;46919;45.816;3.104;2023-07-20T11:07:21;4.88;;;1.52;;
61038;SDS011;46919;45.816;3.104;2023-07-20T11:10:12;6.70;;;1.40;;
61038;SDS011;46919;45.816;3.104;2023-07-20T11:12:39;3.10;;;1.42;;
61038;SDS011;46919;45.816;3.104;2023-07-20T11:15:05;2.65;;;1.48;;
61038;SDS011;46919;45.816;3.104;2023-07-20T11:17:31;5.00;;;1.60;;
61038;SDS011;46919;45.816;3.104;2023-07-20T11:19:58;2.72;;;1.48;;
61038;SDS011;46919;45.816;3.104;2023-07-20T11:22:28;2.53;;;1.42;;
61038;SDS011;46919;45.816;3.104;2023-07-20T11:24:56;2.33;;;1.30;;
61038;SDS011;46919;45.816;3.104;2023-07-20T11:27:21;3.10;;;1.20;;
61038;SDS011;46919;45.816;3.104;2023-07-20T11:29:47;1.58;;;1.23;;
61038;SDS011;46919;45.816;3.104;2023-07-20T11:32:19;3.70;;;1.35;;
61038;SDS011;46919;45.816;3.104;2023-07-20T11:34:46;4.07;;;1.25;;
61038;SDS011;46919;45.816;3.104;2023-07-20T11:37:12;3.75;;;1.30;;
61038;SDS011;46919;45.816;3.104;2023-07-20T11:39:38;4.85;;;1.40;;
61038;SDS011;46919;45.816;3.104;2023-07-20T11:42:04;1.25;;;1.10;;
61038;SDS011;46919;45.816;3.104;2023-07-20T11:44:31;3.67;;;1.30;;
61038;SDS011;46919;45.816;3.104;2023-07-20T11:47:04;7.40;;;1.30;;
61038;SDS011;46919;45.816;3.104;2023-07-20T11:49:35;2.55;;;1.40;;
61038;SDS011;46919;45.816;3.104;2023-07-20T11:52:02;2.92;;;1.55;;
61038;SDS011;46919;45.816;3.104;2023-07-20T11:54:29;4.18;;;1.38;;
61038;SDS011;46919;45.816;3.104;2023-07-20T11:56:55;1.90;;;1.30;;
61038;SDS011;46919;45.816;3.104;2023-07-20T11:59:23;2.60;;;1.10;;
61038;SDS011;46919;45.816;3.104;2023-07-20T12:01:48;1.77;;;1.10;;
61038;SDS011;46919;45.816;3.104;2023-07-20T12:04:14;1.85;;;1.20;;
61038;SDS011;46919;45.816;3.104;2023-07-20T12:06:40;4.43;;;1.30;;
61038;SDS011;46919;45.816;3.104;2023-07-20T12:09:05;6.60;;;1.10;;
61038;SDS011;46919;45.816;3.104;2023-07-20T12:11:35;3.17;;;1.15;;
61038;SDS011;46919;45.816;3.104;2023-07-20T12:14:02;3.65;;;1.50;;
61038;SDS011;46919;45.816;3.104;2023-07-20T12:16:29;2.70;;;1.35;;
61038;SDS011;46919;45.816;3.104;2023-07-20T12:19:05;5.68;;;1.45;;
61038;SDS011;46919;45.816;3.104;2023-07-20T12:21:35;3.15;;;1.20;;
61038;SDS011;46919;45.816;3.104;2023-07-20T12:24:05;3.58;;;1.20;;
61038;SDS011;46919;45.816;3.104;2023-07-20T12:26:31;2.60;;;1.30;;
61038;SDS011;46919;45.816;3.104;2023-07-20T12:28:57;3.22;;;1.10;;
61038;SDS011;46919;45.816;3.104;2023-07-20T12:31:23;3.63;;;1.08;;
61038;SDS011;46919;45.816;3.104;2023-07-20T12:33:52;1.33;;;1.10;;
61038;SDS011;46919;45.816;3.104;2023-07-20T12:36:18;1.38;;;1.27;;
61038;SDS011;46919;45.816;3.104;2023-07-20T12:38:44;1.27;;;1.05;;
61038;SDS011;46919;45.816;3.104;2023-07-20T12:41:10;3.58;;;1.27;;
61038;SDS011;46919;45.816;3.104;2023-07-20T12:43:40;2.50;;;1.08;;
61038;SDS011;46919;45.816;3.104;2023-07-20T12:46:06;4.32;;;1.20;;
61038;SDS011;46919;45.816;3.104;2023-07-20T12:48:32;3.05;;;1.30;;
61038;SDS011;46919;45.816;3.104;2023-07-20T12:50:57;1.90;;;1.13;;
61038;SDS011;46919;45.816;3.104;2023-07-20T12:53:23;1.90;;;1.08;;
61038;SDS011;46919;45.816;3.104;2023-07-20T12:55:48;3.28;;;1.00;;
61038;SDS011;46919;45.816;3.104;2023-07-20T12:58:14;3.33;;;1.13;;
61038;SDS011;46919;45.816;3.104;2023-07-20T13:00:40;2.63;;;1.25;;
61038;SDS011;46919;45.816;3.104;2023-07-20T13:03:06;2.40;;;1.42;;
61038;SDS011;46919;45.816;3.104;2023-07-20T13:05:33;2.38;;;1.30;;
61038;SDS011;46919;45.816;3.104;2023-07-20T13:08:00;3.00;;;1.20;;
61038;SDS011;46919;45.816;3.104;2023-07-20T13:10:25;1.38;;;0.95;;
61038;SDS011;46919;45.816;3.104;2023-07-20T13:12:51;2.85;;;1.38;;
61038;SDS011;46919;45.816;3.104;2023-07-20T13:15:17;1.95;;;1.10;;
61038;SDS011;46919;45.816;3.104;2023-07-20T13:17:43;1.83;;;1.10;;
61038;SDS011;46919;45.816;3.104;2023-07-20T13:20:09;1.42;;;1.17;;
61038;SDS011;46919;45.816;3.104;2023-07-20T13:22:36;3.28;;;1.20;;
61038;SDS011;46919;45.816;3.104;2023-07-20T13:25:02;2.70;;;1.30;;
61038;SDS011;46919;45.816;3.104;2023-07-20T13:27:28;2.40;;;1.20;;
61038;SDS011;46919;45.816;3.104;2023-07-20T13:29:53;5.20;;;1.25;;
61038;SDS011;46919;45.816;3.104;2023-07-20T13:32:18;1.52;;;1.10;;
61038;SDS011;46919;45.816;3.104;2023-07-20T13:34:44;3.33;;;1.20;;
61038;SDS011;46919;45.816;3.104;2023-07-20T13:37:10;3.17;;;1.17;;
61038;SDS011;46919;45.816;3.104;2023-07-20T13:39:37;1.33;;;1.20;;
61038;SDS011;46919;45.816;3.104;2023-07-20T13:42:03;2.78;;;1.20;;
61038;SDS011;46919;45.816;3.104;2023-07-20T13:44:30;4.82;;;1.30;;
61038;SDS011;46919;45.816;3.104;2023-07-20T13:46:56;2.53;;;1.20;;
61038;SDS011;46919;45.816;3.104;2023-07-20T13:49:22;4.88;;;1.20;;
61038;SDS011;46919;45.816;3.104;2023-07-20T13:51:47;3.33;;;1.25;;
61038;SDS011;46919;45.816;3.104;2023-07-20T13:54:13;2.20;;;1.17;;
61038;SDS011;46919;45.816;3.104;2023-07-20T13:56:38;2.40;;;1.33;;
61038;SDS011;46919;45.816;3.104;2023-07-20T13:59:03;3.72;;;1.10;;
61038;SDS011;46919;45.816;3.104;2023-07-20T14:01:29;2.60;;;1.10;;
61038;SDS011;46919;45.816;3.104;2023-07-20T14:03:56;3.78;;;1.52;;
61038;SDS011;46919;45.816;3.104;2023-07-20T14:06:21;1.13;;;0.95;;
61038;SDS011;46919;45.816;3.104;2023-07-20T14:08:47;1.83;;;1.20;;
61038;SDS011;46919;45.816;3.104;2023-07-20T14:11:13;1.83;;;1.20;;
61038;SDS011;46919;45.816;3.104;2023-07-20T14:13:39;2.60;;;1.20;;
61038;SDS011;46919;45.816;3.104;2023-07-20T14:16:05;2.08;;;1.33;;
61038;SDS011;46919;45.816;3.104;2023-07-20T14:18:30;3.78;;;1.35;;
61038;SDS011;46919;45.816;3.104;2023-07-20T14:20:56;2.33;;;1.58;;
61038;SDS011;46919;45.816;3.104;2023-07-20T14:23:22;7.93;;;1.65;;
61038;SDS011;46919;45.816;3.104;2023-07-20T14:25:47;3.05;;;1.60;;
61038;SDS011;46919;45.816;3.104;2023-07-20T14:28:13;2.95;;;1.38;;
61038;SDS011;46919;45.816;3.104;2023-07-20T14:30:39;2.83;;;1.10;;
61038;SDS011;46919;45.816;3.104;2023-07-20T14:33:04;1.95;;;1.40;;
61038;SDS011;46919;45.816;3.104;2023-07-20T14:35:29;1.77;;;1.17;;
61038;SDS011;46919;45.816;3.104;2023-07-20T14:37:55;4.05;;;1.40;;
61038;SDS011;46919;45.816;3.104;2023-07-20T14:40:20;5.60;;;1.40;;
61038;SDS011;46919;45.816;3.104;2023-07-20T14:42:46;1.85;;;1.20;;
61038;SDS011;46919;45.816;3.104;2023-07-20T14:45:11;3.25;;;1.70;;
61038;SDS011;46919;45.816;3.104;2023-07-20T14:47:36;2.55;;;1.30;;
61038;SDS011;46919;45.816;3.104;2023-07-20T14:50:02;4.47;;;1.23;;
61038;SDS011;46919;45.816;3.104;2023-07-20T14:52:28;3.38;;;1.50;;
61038;SDS011;46919;45.816;3.104;2023-07-20T14:54:53;3.13;;;1.63;;
61038;SDS011;46919;45.816;3.104;2023-07-20T14:57:19;3.53;;;1.25;;